createdAt,value
2018-12-21T00:01:18.757Z,6.53
2018-12-21T00:06:20.862Z,6.50
2018-12-21T00:11:23.065Z,6.58
2018-12-21T00:16:25.294Z,6.63
2018-12-21T00:21:27.368Z,6.62
2018-12-21T00:26:29.442Z,6.70
2018-12-21T00:31:37.285Z,6.67
2018-12-21T00:36:45.145Z,6.63
2018-12-21T00:41:46.918Z,6.50
2018-12-21T00:46:52.162Z,6.37
2018-12-21T00:51:54.233Z,6.23
2018-12-21T00:56:56.322Z,6.26
2018-12-21T01:01:58.430Z,6.17
2018-12-21T01:07:00.640Z,6.13
2018-12-21T01:12:03.309Z,6.09
2018-12-21T01:17:06.061Z,6.05
2018-12-21T01:22:08.466Z,6.06
2018-12-21T01:27:10.534Z,6.04
2018-12-21T01:32:13.326Z,6.06
2018-12-21T01:37:15.502Z,6.08
2018-12-21T01:42:17.770Z,6.04
2018-12-21T01:47:19.947Z,6.01
2018-12-21T01:52:22.089Z,6.05
2018-12-21T01:57:24.241Z,6.04
2018-12-21T02:02:26.305Z,6.05
2018-12-21T02:07:28.373Z,6.00
2018-12-21T02:12:30.649Z,6.03
2018-12-21T02:17:32.718Z,6.03
2018-12-21T02:22:34.758Z,6.08
2018-12-21T02:27:36.913Z,6.09
2018-12-21T02:32:39.014Z,6.09
2018-12-21T02:37:41.172Z,6.07
2018-12-21T02:42:43.207Z,6.02
2018-12-21T02:47:45.606Z,6.04
2018-12-21T02:52:47.890Z,6.08
2018-12-21T02:57:50.055Z,6.00
2018-12-21T03:02:52.509Z,6.03
2018-12-21T03:07:54.573Z,6.06
2018-12-21T03:12:56.601Z,6.09
2018-12-21T03:17:58.869Z,6.13
2018-12-21T03:23:00.922Z,6.14
2018-12-21T03:28:03.082Z,6.02
2018-12-21T03:33:05.163Z,5.95
2018-12-21T03:38:09.142Z,5.76
2018-12-21T03:43:11.318Z,5.80
2018-12-21T03:48:13.789Z,5.93
2018-12-21T03:53:15.870Z,5.98
2018-12-21T03:58:17.935Z,6.13
2018-12-21T04:03:20.755Z,6.20
2018-12-21T04:08:23.796Z,6.21
2018-12-21T04:13:25.842Z,6.29
2018-12-21T04:18:27.925Z,6.29
2018-12-21T04:23:29.966Z,6.32
2018-12-21T04:28:32.111Z,6.44
2018-12-21T04:33:34.167Z,6.58
2018-12-21T04:38:43.135Z,6.67
2018-12-21T04:43:52.314Z,6.67
2018-12-21T04:48:54.527Z,6.68
2018-12-21T04:53:57.491Z,6.78
2018-12-21T04:58:59.935Z,6.75
2018-12-21T05:04:02.234Z,6.81
2018-12-21T05:09:05.498Z,6.84
2018-12-21T05:14:08.098Z,6.89
2018-12-21T05:19:10.450Z,6.88
2018-12-21T05:24:12.501Z,6.84
2018-12-21T05:29:14.632Z,6.91
2018-12-21T05:34:16.970Z,6.90
2018-12-21T05:39:19.257Z,6.90
2018-12-21T05:44:21.553Z,6.90
2018-12-21T05:49:24.195Z,6.90
2018-12-21T05:54:26.248Z,6.86
2018-12-21T05:59:28.293Z,6.88
2018-12-21T06:04:30.505Z,6.91
2018-12-21T06:09:32.553Z,6.99
2018-12-21T06:14:34.618Z,7.00
2018-12-21T06:19:36.657Z,7.11
2018-12-21T06:24:38.824Z,7.02
2018-12-21T06:29:40.886Z,6.90
2018-12-21T06:34:43.121Z,6.91
2018-12-21T06:39:45.214Z,6.86
2018-12-21T06:44:47.397Z,6.83
2018-12-21T06:49:49.557Z,6.77
2018-12-21T06:54:52.498Z,6.76
2018-12-21T06:59:54.702Z,6.57
2018-12-21T07:04:56.761Z,6.80
2018-12-21T07:09:58.958Z,6.89
2018-12-21T07:15:01.312Z,6.90
2018-12-21T07:20:03.721Z,6.84
2018-12-21T07:25:07.002Z,6.86
2018-12-21T07:30:10.833Z,6.75
2018-12-21T07:35:15.161Z,6.72
2018-12-21T07:40:17.409Z,6.63
2018-12-21T07:45:19.697Z,6.67
2018-12-21T07:50:21.986Z,6.83
2018-12-21T07:55:24.183Z,6.68
2018-12-21T08:00:26.514Z,6.83
2018-12-21T08:05:28.569Z,6.79
2018-12-21T08:10:30.757Z,6.90
2018-12-21T08:15:33.115Z,6.92
2018-12-21T08:20:35.299Z,6.99
2018-12-21T08:25:37.522Z,6.91
2018-12-21T08:30:39.718Z,6.98
2018-12-21T08:35:41.801Z,6.99
2018-12-21T08:40:43.893Z,6.99
2018-12-21T08:45:46.006Z,6.78
2018-12-21T08:50:48.303Z,6.60
2018-12-21T08:55:50.486Z,6.38
2018-12-21T09:00:52.838Z,6.24
2018-12-21T09:05:55.033Z,6.29
2018-12-21T09:10:57.350Z,6.21
2018-12-21T09:15:59.479Z,6.32
2018-12-21T09:21:01.664Z,6.27
2018-12-21T09:26:04.789Z,6.34
2018-12-21T09:31:07.090Z,6.39
2018-12-21T09:36:09.342Z,6.46
2018-12-21T09:41:11.535Z,6.52
2018-12-21T09:46:13.737Z,6.57
2018-12-21T09:51:16.213Z,6.43
2018-12-21T09:56:18.523Z,6.57
2018-12-21T10:01:27.455Z,6.65
2018-12-21T10:06:29.657Z,6.70
2018-12-21T10:11:31.782Z,6.87
2018-12-21T10:16:33.998Z,6.81
2018-12-21T10:21:36.100Z,6.80
2018-12-21T10:26:38.210Z,6.76
2018-12-21T10:31:47.157Z,6.55
2018-12-21T10:36:49.430Z,6.55
2018-12-21T10:41:51.757Z,6.57
2018-12-21T10:46:54.039Z,6.71
2018-12-21T10:51:56.237Z,6.88
2018-12-21T10:56:59.411Z,6.92
2018-12-21T11:02:01.709Z,6.97
2018-12-21T11:07:03.941Z,6.98
2018-12-21T11:12:06.214Z,7.08
2018-12-21T11:17:08.517Z,7.00
2018-12-21T11:22:10.646Z,6.90
2018-12-21T11:27:12.822Z,6.87
2018-12-21T11:32:15.017Z,6.77
2018-12-21T11:42:29.325Z,6.63
2018-12-21T11:47:32.741Z,6.58
2018-12-21T11:52:34.862Z,6.52
2018-12-21T11:57:37.197Z,6.49
2018-12-21T12:02:46.030Z,6.47
2018-12-21T12:07:48.233Z,6.44
2018-12-21T12:12:50.393Z,6.44
2018-12-21T12:17:52.806Z,6.40
2018-12-21T12:22:54.890Z,6.43
2018-12-21T12:27:57.228Z,6.44
2018-12-21T12:32:59.435Z,6.48
2018-12-21T12:38:01.619Z,6.52
2018-12-21T12:43:03.985Z,6.53
2018-12-21T12:48:07.125Z,6.56
2018-12-21T12:53:09.290Z,6.59
2018-12-21T12:58:11.572Z,6.62
2018-12-21T13:03:13.765Z,6.71
2018-12-21T13:08:15.894Z,6.73
2018-12-21T13:13:18.081Z,6.78
2018-12-21T13:18:20.280Z,6.84
2018-12-21T13:23:22.409Z,6.90
2018-12-21T13:28:24.619Z,6.98
2018-12-21T13:33:26.686Z,7.07
2018-12-21T13:38:28.753Z,7.12
2018-12-21T13:43:30.834Z,7.22
2018-12-21T13:48:33.129Z,7.28
2018-12-21T13:53:41.145Z,7.33
2018-12-21T13:58:43.234Z,7.41
2018-12-21T14:03:45.314Z,7.44
2018-12-21T14:08:47.502Z,7.55
2018-12-21T14:13:49.726Z,7.61
2018-12-21T14:18:51.950Z,7.67
2018-12-21T14:23:54.130Z,7.77
2018-12-21T14:28:56.337Z,7.88
2018-12-21T14:33:58.589Z,7.97
2018-12-21T14:39:00.785Z,7.90
2018-12-21T14:44:03.527Z,8.11
2018-12-21T14:49:05.719Z,8.44
2018-12-21T14:54:07.799Z,8.56
2018-12-21T14:59:10.108Z,8.66
2018-12-21T15:04:12.243Z,8.74
2018-12-21T15:09:14.854Z,8.96
2018-12-21T15:14:17.182Z,9.07
2018-12-21T15:19:19.385Z,9.16
2018-12-21T15:24:21.697Z,9.29
2018-12-21T15:29:23.876Z,9.15
2018-12-21T15:34:26.146Z,9.18
2018-12-21T15:39:32.413Z,9.24
2018-12-21T15:44:35.789Z,9.36
2018-12-21T15:49:38.529Z,9.46
2018-12-21T15:54:40.599Z,9.46
2018-12-21T15:59:43.683Z,9.46
2018-12-21T16:04:45.895Z,9.43
2018-12-21T16:09:48.322Z,9.46
2018-12-21T16:14:51.285Z,9.60
2018-12-21T16:19:53.377Z,9.72
2018-12-21T16:24:56.419Z,9.90
2018-12-21T16:29:58.833Z,10.03
2018-12-21T16:35:01.165Z,9.98
2018-12-21T16:40:04.505Z,10.27
2018-12-21T16:45:08.925Z,10.68
2018-12-21T16:50:12.577Z,10.51
2018-12-21T16:55:15.789Z,10.48
2018-12-21T17:00:17.926Z,10.56
2018-12-21T17:05:20.222Z,10.87
2018-12-21T17:10:23.366Z,10.92
2018-12-21T17:15:25.862Z,11.06
2018-12-21T17:20:28.162Z,11.31
2018-12-21T17:25:31.030Z,11.19
2018-12-21T17:30:33.186Z,11.12
2018-12-21T17:35:37.500Z,11.13
2018-12-21T17:40:39.669Z,10.99
2018-12-21T17:45:43.042Z,11.04
2018-12-21T17:50:45.245Z,11.15
2018-12-21T17:55:47.507Z,11.20
2018-12-21T18:00:49.774Z,11.35
2018-12-21T18:05:51.938Z,11.31
2018-12-21T18:10:54.111Z,11.30
2018-12-21T18:15:56.288Z,11.24
2018-12-21T18:20:58.379Z,11.32
2018-12-21T18:26:00.450Z,11.33
2018-12-21T18:31:16.093Z,11.18
2018-12-21T18:36:35.481Z,11.22
2018-12-21T18:41:37.749Z,11.46
2018-12-21T18:46:39.926Z,11.51
2018-12-21T18:51:42.100Z,11.36
2018-12-21T18:57:01.067Z,11.35
2018-12-21T19:02:03.327Z,11.38
2018-12-21T19:07:05.782Z,11.57
2018-12-21T19:12:07.869Z,11.53
2018-12-21T19:17:09.981Z,11.60
2018-12-21T19:22:12.306Z,11.53
2018-12-21T19:27:14.454Z,11.48
2018-12-21T19:32:16.598Z,10.63
2018-12-21T19:37:18.961Z,10.52
2018-12-21T19:42:21.118Z,10.56
2018-12-21T19:47:23.295Z,10.54
2018-12-21T19:52:25.534Z,10.48
2018-12-21T19:57:27.588Z,10.54
2018-12-21T20:02:29.633Z,10.61
2018-12-21T20:07:32.011Z,10.75
2018-12-21T20:12:34.368Z,10.73
2018-12-21T20:17:36.553Z,10.91
2018-12-21T20:22:39.772Z,10.62
2018-12-21T20:27:41.957Z,10.46
2018-12-21T20:32:44.146Z,10.59
2018-12-21T20:37:46.449Z,10.49
2018-12-21T20:42:48.517Z,10.53
2018-12-21T20:47:50.591Z,10.84
2018-12-21T20:52:52.639Z,10.82
2018-12-21T20:58:00.949Z,10.74
2018-12-21T21:03:03.230Z,10.59
2018-12-21T21:08:05.310Z,10.46
2018-12-21T21:13:07.353Z,10.76
2018-12-21T21:18:09.567Z,10.67
2018-12-21T21:23:12.017Z,10.82
2018-12-21T21:28:14.832Z,11.03
2018-12-21T21:33:16.878Z,10.80
2018-12-21T21:38:18.995Z,10.71
2018-12-21T21:43:21.041Z,10.91
2018-12-21T21:48:23.202Z,10.92
2018-12-21T21:53:25.455Z,10.97
2018-12-21T21:58:27.497Z,10.84
2018-12-21T22:03:29.665Z,10.80
2018-12-21T22:08:31.902Z,10.70
2018-12-21T22:13:35.337Z,10.68
2018-12-21T22:18:37.713Z,10.85
2018-12-21T22:23:39.913Z,10.84
2018-12-21T22:28:42.051Z,10.85
2018-12-21T22:33:44.087Z,10.78
2018-12-21T22:38:46.265Z,10.72
2018-12-21T22:43:48.326Z,10.77
2018-12-21T22:48:50.743Z,10.73
2018-12-21T22:53:53.029Z,10.68
2018-12-21T22:58:55.089Z,10.64
2018-12-21T23:03:57.150Z,10.56
2018-12-21T23:08:59.221Z,10.63
2018-12-21T23:14:01.494Z,10.58
2018-12-21T23:19:03.814Z,10.54
2018-12-21T23:24:05.850Z,10.54
2018-12-21T23:29:08.142Z,10.62
2018-12-21T23:34:10.397Z,10.63
2018-12-21T23:39:12.433Z,10.74
2018-12-21T23:44:14.606Z,10.77
2018-12-21T23:49:16.923Z,10.74
2018-12-21T23:54:19.538Z,10.78
2018-12-21T23:59:21.613Z,10.80
